Pagrindinis puslapis
METAR-TAF:

METAR-TAF

Oro uostai :

Monbetsu, Japonija

platuma: 44-15N, ilguma: 143-32E, Aukštis: 6 m

Dabartinis oras

Ataskaita buvo paskelbta 6 valandos ir 28 minutes, ne 07:00 UTC
Vėjas 8 kt iš Rytų
Temperatūra 4°C
Drėgmė 87%
Slėgis 1021 hPa
Matomumas 10 km arba daugiau
Mažai debesys ne aukštis 2000 ft

METAR: RJEB 120700Z 09008KT 9999 FEW020 04/02 Q1021

Laikas: 22:28 (13:28 UTC)


TAF: trūkstamas

Orai ataskaitas ir orų prognozės (METAR, TAF).

turimą stotys yra geltonos ir raudonos taškus žemėlapyje.

Perkelti pele per norėdami pamatyti stoties vardą.

Tada spustelėkite, norėdami matyti oro stebėjimo ir prognozės.

Norėdami pakeisti žemėlapį: spustelėkite ant žalios mygtukų su juodo kryžiaus žemyn,; žalią mygtuką su brūkšneliu, jei norite nutolinti; arba žalių rodyklių gretimoms žemėlapius.


METAR-TAF: